sensor_id;sensor_type;location;lat;lon;timestamp;pressure;altitude;pressure_sealevel;temperature;humidity
65872;BME280;52653;50.080;21.992;2023-09-19T00:00:43;98670.54;;;16.17;91.60
65872;BME280;52653;50.080;21.992;2023-09-19T00:03:38;98668.30;;;16.15;91.56
65872;BME280;52653;50.080;21.992;2023-09-19T00:06:14;98663.27;;;16.13;91.38
65872;BME280;52653;50.080;21.992;2023-09-19T00:08:46;98659.50;;;16.10;91.64
65872;BME280;52653;50.080;21.992;2023-09-19T00:11:19;98662.82;;;16.06;91.71
65872;BME280;52653;50.080;21.992;2023-09-19T00:13:51;98658.71;;;16.03;91.67
65872;BME280;52653;50.080;21.992;2023-09-19T00:16:26;98660.86;;;15.97;91.57
65872;BME280;52653;50.080;21.992;2023-09-19T00:18:59;98657.36;;;15.92;91.52
65872;BME280;52653;50.080;21.992;2023-09-19T00:21:36;98657.19;;;15.86;91.88
65872;BME280;52653;50.080;21.992;2023-09-19T00:24:09;98660.45;;;15.80;92.00
65872;BME280;52653;50.080;21.992;2023-09-19T00:26:43;98661.71;;;15.75;92.36
65872;BME280;52653;50.080;21.992;2023-09-19T00:29:18;98663.66;;;15.70;92.46
65872;BME280;52653;50.080;21.992;2023-09-19T00:31:52;98661.70;;;15.66;92.57
65872;BME280;52653;50.080;21.992;2023-09-19T00:34:25;98656.89;;;15.62;92.81
65872;BME280;52653;50.080;21.992;2023-09-19T00:36:59;98651.87;;;15.58;92.91
65872;BME280;52653;50.080;21.992;2023-09-19T00:39:31;98650.06;;;15.54;92.96
65872;BME280;52653;50.080;21.992;2023-09-19T00:42:04;98652.14;;;15.51;93.23
65872;BME280;52653;50.080;21.992;2023-09-19T00:44:39;98649.80;;;15.47;93.73
65872;BME280;52653;50.080;21.992;2023-09-19T00:47:14;98643.92;;;15.44;93.90
65872;BME280;52653;50.080;21.992;2023-09-19T00:49:49;98641.37;;;15.41;94.25
65872;BME280;52653;50.080;21.992;2023-09-19T00:52:22;98639.29;;;15.40;94.52
65872;BME280;52653;50.080;21.992;2023-09-19T00:54:55;98633.67;;;15.39;94.99
65872;BME280;52653;50.080;21.992;2023-09-19T00:57:29;98628.36;;;15.40;95.25
65872;BME280;52653;50.080;21.992;2023-09-19T01:00:06;98625.50;;;15.40;95.35
65872;BME280;52653;50.080;21.992;2023-09-19T01:02:42;98624.25;;;15.41;95.36
65872;BME280;52653;50.080;21.992;2023-09-19T01:05:16;98620.52;;;15.41;95.47
65872;BME280;52653;50.080;21.992;2023-09-19T01:07:49;98617.68;;;15.41;95.53
65872;BME280;52653;50.080;21.992;2023-09-19T01:10:25;98613.45;;;15.41;95.47
65872;BME280;52653;50.080;21.992;2023-09-19T01:13:05;98609.35;;;15.42;95.63
65872;BME280;52653;50.080;21.992;2023-09-19T01:15:48;98608.83;;;15.42;95.41
65872;BME280;52653;50.080;21.992;2023-09-19T01:18:39;98604.42;;;15.41;95.48
65872;BME280;52653;50.080;21.992;2023-09-19T01:21:18;98604.27;;;15.41;95.30
65872;BME280;52653;50.080;21.992;2023-09-19T01:24:22;98604.35;;;15.39;95.27
65872;BME280;52653;50.080;21.992;2023-09-19T01:27:30;98600.15;;;15.37;95.43
65872;BME280;52653;50.080;21.992;2023-09-19T01:30:17;98602.49;;;15.36;95.57
65872;BME280;52653;50.080;21.992;2023-09-19T01:32:55;98599.54;;;15.34;95.79
65872;BME280;52653;50.080;21.992;2023-09-19T01:35:28;98592.17;;;15.33;95.92
65872;BME280;52653;50.080;21.992;2023-09-19T01:38:01;98592.75;;;15.32;95.90
65872;BME280;52653;50.080;21.992;2023-09-19T01:40:39;98591.36;;;15.31;96.12
65872;BME280;52653;50.080;21.992;2023-09-19T01:43:20;98590.83;;;15.31;96.28
65872;BME280;52653;50.080;21.992;2023-09-19T01:46:02;98589.84;;;15.29;95.94
65872;BME280;52653;50.080;21.992;2023-09-19T01:48:40;98588.70;;;15.27;95.50
65872;BME280;52653;50.080;21.992;2023-09-19T01:51:24;98586.99;;;15.24;95.57
65872;BME280;52653;50.080;21.992;2023-09-19T01:54:07;98587.23;;;15.23;95.88
65872;BME280;52653;50.080;21.992;2023-09-19T01:56:57;98589.39;;;15.22;95.89
65872;BME280;52653;50.080;21.992;2023-09-19T01:59:38;98588.01;;;15.21;96.10
65872;BME280;52653;50.080;21.992;2023-09-19T02:02:15;98584.84;;;15.21;96.12
65872;BME280;52653;50.080;21.992;2023-09-19T02:04:50;98585.18;;;15.21;96.27
65872;BME280;52653;50.080;21.992;2023-09-19T02:07:24;98585.36;;;15.21;96.51
65872;BME280;52653;50.080;21.992;2023-09-19T02:09:59;98584.09;;;15.22;96.56
65872;BME280;52653;50.080;21.992;2023-09-19T02:12:33;98583.02;;;15.23;96.66
65872;BME280;52653;50.080;21.992;2023-09-19T02:15:08;98581.73;;;15.24;96.53
65872;BME280;52653;50.080;21.992;2023-09-19T02:17:40;98577.80;;;15.25;96.65
65872;BME280;52653;50.080;21.992;2023-09-19T02:20:14;98576.85;;;15.27;96.55
65872;BME280;52653;50.080;21.992;2023-09-19T02:22:49;98574.64;;;15.29;96.57
65872;BME280;52653;50.080;21.992;2023-09-19T02:25:22;98573.35;;;15.31;96.67
65872;BME280;52653;50.080;21.992;2023-09-19T02:27:58;98570.98;;;15.33;96.53
65872;BME280;52653;50.080;21.992;2023-09-19T02:30:32;98568.09;;;15.34;96.52
65872;BME280;52653;50.080;21.992;2023-09-19T02:33:05;98558.83;;;15.36;96.48
65872;BME280;52653;50.080;21.992;2023-09-19T02:35:40;98551.83;;;15.40;96.73
65872;BME280;52653;50.080;21.992;2023-09-19T02:38:13;98551.71;;;15.43;96.61
65872;BME280;52653;50.080;21.992;2023-09-19T02:40:49;98549.27;;;15.46;96.76
65872;BME280;52653;50.080;21.992;2023-09-19T02:43:22;98551.08;;;15.50;96.93
65872;BME280;52653;50.080;21.992;2023-09-19T02:45:55;98551.79;;;15.54;97.25
65872;BME280;52653;50.080;21.992;2023-09-19T02:48:29;98547.98;;;15.62;97.69
65872;BME280;52653;50.080;21.992;2023-09-19T02:51:03;98541.10;;;15.71;97.68
65872;BME280;52653;50.080;21.992;2023-09-19T02:53:36;98541.46;;;15.84;97.94
65872;BME280;52653;50.080;21.992;2023-09-19T02:56:09;98545.55;;;16.01;98.20
65872;BME280;52653;50.080;21.992;2023-09-19T02:58:45;98541.55;;;16.21;97.69
65872;BME280;52653;50.080;21.992;2023-09-19T03:01:21;98533.70;;;16.39;96.95
65872;BME280;52653;50.080;21.992;2023-09-19T03:03:54;98534.23;;;16.57;96.24
65872;BME280;52653;50.080;21.992;2023-09-19T03:06:26;98531.52;;;16.70;95.35
65872;BME280;52653;50.080;21.992;2023-09-19T03:09:02;98526.36;;;16.83;94.64
65872;BME280;52653;50.080;21.992;2023-09-19T03:11:37;98519.70;;;16.98;94.10
65872;BME280;52653;50.080;21.992;2023-09-19T03:14:11;98522.44;;;17.12;93.60
65872;BME280;52653;50.080;21.992;2023-09-19T03:16:45;98522.44;;;17.23;92.76
65872;BME280;52653;50.080;21.992;2023-09-19T03:19:18;98511.99;;;17.34;92.33
65872;BME280;52653;50.080;21.992;2023-09-19T03:21:52;98507.77;;;17.45;91.81
65872;BME280;52653;50.080;21.992;2023-09-19T03:24:48;98503.61;;;17.55;91.18
65872;BME280;52653;50.080;21.992;2023-09-19T03:27:22;98497.60;;;17.65;90.67
65872;BME280;52653;50.080;21.992;2023-09-19T03:29:57;98499.44;;;17.76;89.90
65872;BME280;52653;50.080;21.992;2023-09-19T03:32:29;98505.91;;;17.85;89.46
65872;BME280;52653;50.080;21.992;2023-09-19T03:35:04;98507.62;;;17.93;88.71
65872;BME280;52653;50.080;21.992;2023-09-19T03:37:38;98510.04;;;18.02;88.22
65872;BME280;52653;50.080;21.992;2023-09-19T03:40:11;98509.96;;;18.10;87.53
65872;BME280;52653;50.080;21.992;2023-09-19T03:42:47;98509.02;;;18.23;86.54
65872;BME280;52653;50.080;21.992;2023-09-19T03:45:20;98505.13;;;18.33;85.60
65872;BME280;52653;50.080;21.992;2023-09-19T03:47:55;98499.27;;;18.43;85.83
65872;BME280;52653;50.080;21.992;2023-09-19T03:50:28;98499.11;;;18.50;85.59
65872;BME280;52653;50.080;21.992;2023-09-19T03:53:02;98498.70;;;18.55;85.81
65872;BME280;52653;50.080;21.992;2023-09-19T03:55:34;98492.36;;;18.57;86.06
65872;BME280;52653;50.080;21.992;2023-09-19T03:58:10;98487.92;;;18.57;86.74
65872;BME280;52653;50.080;21.992;2023-09-19T04:00:42;98483.60;;;18.54;87.06
65872;BME280;52653;50.080;21.992;2023-09-19T04:03:15;98485.66;;;18.52;87.42
65872;BME280;52653;50.080;21.992;2023-09-19T04:05:52;98485.64;;;18.49;87.92
65872;BME280;52653;50.080;21.992;2023-09-19T04:08:25;98488.67;;;18.46;87.85
65872;BME280;52653;50.080;21.992;2023-09-19T04:10:57;98484.11;;;18.41;88.53
65872;BME280;52653;50.080;21.992;2023-09-19T04:13:30;98486.20;;;18.35;88.81
65872;BME280;52653;50.080;21.992;2023-09-19T04:16:03;98484.02;;;18.29;89.08
65872;BME280;52653;50.080;21.992;2023-09-19T04:18:38;98487.25;;;18.24;89.36
65872;BME280;52653;50.080;21.992;2023-09-19T04:21:14;98487.89;;;18.19;89.68
65872;BME280;52653;50.080;21.992;2023-09-19T04:23:47;98486.45;;;18.15;89.84
65872;BME280;52653;50.080;21.992;2023-09-19T04:26:20;98482.56;;;18.12;90.18
65872;BME280;52653;50.080;21.992;2023-09-19T04:28:53;98474.27;;;18.08;90.09
65872;BME280;52653;50.080;21.992;2023-09-19T04:31:31;98471.73;;;18.05;90.13
65872;BME280;52653;50.080;21.992;2023-09-19T04:34:06;98468.16;;;18.02;90.32
65872;BME280;52653;50.080;21.992;2023-09-19T04:36:44;98469.67;;;18.00;90.29
65872;BME280;52653;50.080;21.992;2023-09-19T04:39:17;98466.73;;;17.99;90.44
65872;BME280;52653;50.080;21.992;2023-09-19T04:41:49;98463.77;;;17.98;90.36
65872;BME280;52653;50.080;21.992;2023-09-19T04:44:33;98463.22;;;17.98;90.31
65872;BME280;52653;50.080;21.992;2023-09-19T04:47:08;98462.08;;;18.00;90.41
65872;BME280;52653;50.080;21.992;2023-09-19T04:49:43;98463.08;;;18.01;90.11
65872;BME280;52653;50.080;21.992;2023-09-19T04:52:16;98461.17;;;18.03;90.24
65872;BME280;52653;50.080;21.992;2023-09-19T04:54:51;98461.10;;;18.05;90.18
65872;BME280;52653;50.080;21.992;2023-09-19T04:57:28;98458.84;;;18.08;90.30
65872;BME280;52653;50.080;21.992;2023-09-19T05:00:03;98463.46;;;18.10;90.46
65872;BME280;52653;50.080;21.992;2023-09-19T05:02:38;98464.17;;;18.14;90.28
65872;BME280;52653;50.080;21.992;2023-09-19T05:05:11;98462.91;;;18.18;90.28
65872;BME280;52653;50.080;21.992;2023-09-19T05:08:05;98459.80;;;18.23;90.13
65872;BME280;52653;50.080;21.992;2023-09-19T05:10:43;98459.77;;;18.28;89.84
65872;BME280;52653;50.080;21.992;2023-09-19T05:13:16;98460.20;;;18.30;89.85
65872;BME280;52653;50.080;21.992;2023-09-19T05:15:51;98462.85;;;18.30;89.58
65872;BME280;52653;50.080;21.992;2023-09-19T05:18:24;98462.37;;;18.29;88.95
65872;BME280;52653;50.080;21.992;2023-09-19T05:20:57;98464.60;;;18.27;88.79
65872;BME280;52653;50.080;21.992;2023-09-19T05:23:32;98464.42;;;18.27;88.70
65872;BME280;52653;50.080;21.992;2023-09-19T05:26:05;98464.52;;;18.25;88.63
65872;BME280;52653;50.080;21.992;2023-09-19T05:28:38;98461.88;;;18.24;88.33
65872;BME280;52653;50.080;21.992;2023-09-19T05:31:11;98459.39;;;18.24;88.48
65872;BME280;52653;50.080;21.992;2023-09-19T05:33:44;98456.66;;;18.26;88.20
65872;BME280;52653;50.080;21.992;2023-09-19T05:36:16;98455.36;;;18.27;88.11
65872;BME280;52653;50.080;21.992;2023-09-19T05:38:50;98455.21;;;18.30;87.63
65872;BME280;52653;50.080;21.992;2023-09-19T05:41:25;98452.85;;;18.35;87.59
65872;BME280;52653;50.080;21.992;2023-09-19T05:43:57;98452.69;;;18.41;87.70
65872;BME280;52653;50.080;21.992;2023-09-19T05:46:34;98449.32;;;18.48;87.50
65872;BME280;52653;50.080;21.992;2023-09-19T05:49:06;98446.88;;;18.53;86.80
65872;BME280;52653;50.080;21.992;2023-09-19T05:51:39;98449.02;;;18.60;86.74
65872;BME280;52653;50.080;21.992;2023-09-19T05:54:12;98447.25;;;18.68;85.99
65872;BME280;52653;50.080;21.992;2023-09-19T05:56:45;98449.52;;;18.74;85.86
65872;BME280;52653;50.080;21.992;2023-09-19T05:59:18;98450.70;;;18.79;85.51
65872;BME280;52653;50.080;21.992;2023-09-19T06:01:55;98453.59;;;18.82;85.08
65872;BME280;52653;50.080;21.992;2023-09-19T06:04:27;98453.92;;;18.86;84.85
65872;BME280;52653;50.080;21.992;2023-09-19T06:07:07;98453.11;;;18.91;84.65
65872;BME280;52653;50.080;21.992;2023-09-19T06:09:39;98453.61;;;18.95;84.28
65872;BME280;52653;50.080;21.992;2023-09-19T06:12:12;98455.46;;;19.00;84.64
65872;BME280;52653;50.080;21.992;2023-09-19T06:14:47;98456.78;;;19.05;84.05
65872;BME280;52653;50.080;21.992;2023-09-19T06:17:22;98458.39;;;19.08;84.06
65872;BME280;52653;50.080;21.992;2023-09-19T06:19:54;98461.38;;;19.12;83.45
65872;BME280;52653;50.080;21.992;2023-09-19T06:22:27;98463.92;;;19.11;83.08
65872;BME280;52653;50.080;21.992;2023-09-19T06:25:00;98460.45;;;19.10;82.86
65872;BME280;52653;50.080;21.992;2023-09-19T06:27:38;98465.60;;;19.10;82.79
65872;BME280;52653;50.080;21.992;2023-09-19T06:30:13;98468.10;;;19.10;83.04
65872;BME280;52653;50.080;21.992;2023-09-19T06:32:48;98466.77;;;19.11;82.87
65872;BME280;52653;50.080;21.992;2023-09-19T06:35:21;98467.46;;;19.11;82.65
65872;BME280;52653;50.080;21.992;2023-09-19T06:37:54;98465.00;;;19.14;82.49
65872;BME280;52653;50.080;21.992;2023-09-19T06:40:30;98464.75;;;19.19;82.66
65872;BME280;52653;50.080;21.992;2023-09-19T06:43:06;98465.09;;;19.22;82.31
65872;BME280;52653;50.080;21.992;2023-09-19T06:45:39;98463.66;;;19.25;81.93
65872;BME280;52653;50.080;21.992;2023-09-19T06:48:13;98461.77;;;19.27;81.28
65872;BME280;52653;50.080;21.992;2023-09-19T06:50:46;98459.52;;;19.29;81.07
65872;BME280;52653;50.080;21.992;2023-09-19T06:53:23;98460.66;;;19.32;80.94
65872;BME280;52653;50.080;21.992;2023-09-19T06:55:56;98465.61;;;19.35;81.14
65872;BME280;52653;50.080;21.992;2023-09-19T06:58:28;98462.42;;;19.41;81.32
65872;BME280;52653;50.080;21.992;2023-09-19T07:01:03;98455.16;;;19.48;80.36
65872;BME280;52653;50.080;21.992;2023-09-19T07:03:36;98448.77;;;19.51;80.39
65872;BME280;52653;50.080;21.992;2023-09-19T07:06:09;98449.30;;;19.54;80.41
65872;BME280;52653;50.080;21.992;2023-09-19T07:08:42;98450.66;;;19.58;80.16
65872;BME280;52653;50.080;21.992;2023-09-19T07:11:16;98457.33;;;19.63;79.54
65872;BME280;52653;50.080;21.992;2023-09-19T07:13:49;98467.48;;;19.73;79.52
65872;BME280;52653;50.080;21.992;2023-09-19T07:16:21;98462.73;;;19.84;78.95
65872;BME280;52653;50.080;21.992;2023-09-19T07:19:03;98470.61;;;19.98;78.94
65872;BME280;52653;50.080;21.992;2023-09-19T07:21:36;98476.42;;;20.09;78.36
65872;BME280;52653;50.080;21.992;2023-09-19T07:24:10;98473.50;;;20.19;78.11
65872;BME280;52653;50.080;21.992;2023-09-19T07:26:42;98476.16;;;20.38;78.17
65872;BME280;52653;50.080;21.992;2023-09-19T07:29:15;98474.11;;;20.57;77.37
65872;BME280;52653;50.080;21.992;2023-09-19T07:31:51;98469.55;;;20.74;76.70
65872;BME280;52653;50.080;21.992;2023-09-19T07:34:23;98471.51;;;20.88;75.92
65872;BME280;52653;50.080;21.992;2023-09-19T07:36:56;98475.44;;;21.00;74.97
65872;BME280;52653;50.080;21.992;2023-09-19T07:39:30;98472.73;;;21.06;74.43
65872;BME280;52653;50.080;21.992;2023-09-19T07:42:07;98476.70;;;21.05;74.03
65872;BME280;52653;50.080;21.992;2023-09-19T07:44:43;98478.05;;;21.03;74.30
65872;BME280;52653;50.080;21.992;2023-09-19T07:47:18;98478.39;;;21.04;74.29
65872;BME280;52653;50.080;21.992;2023-09-19T07:49:52;98485.59;;;21.03;74.09
65872;BME280;52653;50.080;21.992;2023-09-19T07:52:24;98480.59;;;21.00;73.72
65872;BME280;52653;50.080;21.992;2023-09-19T07:55:01;98484.35;;;20.94;73.12
65872;BME280;52653;50.080;21.992;2023-09-19T07:57:40;98479.11;;;20.89;73.81
65872;BME280;52653;50.080;21.992;2023-09-19T08:00:16;98476.00;;;20.88;74.06
65872;BME280;52653;50.080;21.992;2023-09-19T08:02:52;98476.53;;;20.91;74.08
65872;BME280;52653;50.080;21.992;2023-09-19T08:05:34;98474.44;;;20.84;73.32
65872;BME280;52653;50.080;21.992;2023-09-19T08:08:08;98473.61;;;20.74;73.49
65872;BME280;52653;50.080;21.992;2023-09-19T08:10:40;98471.79;;;20.72;73.72
65872;BME280;52653;50.080;21.992;2023-09-19T08:13:17;98470.77;;;20.66;74.03
65872;BME280;52653;50.080;21.992;2023-09-19T08:15:50;98468.30;;;20.59;74.52
65872;BME280;52653;50.080;21.992;2023-09-19T08:18:24;98472.52;;;20.54;74.51
65872;BME280;52653;50.080;21.992;2023-09-19T08:21:01;98473.71;;;20.46;74.50
65872;BME280;52653;50.080;21.992;2023-09-19T08:23:34;98469.45;;;20.39;74.65
65872;BME280;52653;50.080;21.992;2023-09-19T08:26:07;98468.59;;;20.33;75.26
65872;BME280;52653;50.080;21.992;2023-09-19T08:28:43;98469.29;;;20.24;75.79
65872;BME280;52653;50.080;21.992;2023-09-19T08:31:16;98468.76;;;20.15;75.97
65872;BME280;52653;50.080;21.992;2023-09-19T08:33:49;98467.00;;;20.09;76.21
65872;BME280;52653;50.080;21.992;2023-09-19T08:36:23;98462.30;;;20.04;76.68
65872;BME280;52653;50.080;21.992;2023-09-19T08:38:57;98463.98;;;19.99;76.79
65872;BME280;52653;50.080;21.992;2023-09-19T08:41:30;98461.58;;;19.94;77.13
65872;BME280;52653;50.080;21.992;2023-09-19T08:44:04;98462.41;;;19.92;77.13
65872;BME280;52653;50.080;21.992;2023-09-19T08:46:41;98456.98;;;19.88;77.45
65872;BME280;52653;50.080;21.992;2023-09-19T08:49:23;98461.70;;;19.80;77.48
65872;BME280;52653;50.080;21.992;2023-09-19T08:52:05;98462.55;;;19.75;77.50
65872;BME280;52653;50.080;21.992;2023-09-19T08:54:45;98463.38;;;19.69;77.78
65872;BME280;52653;50.080;21.992;2023-09-19T08:57:20;98464.92;;;19.67;78.33
65872;BME280;52653;50.080;21.992;2023-09-19T08:59:54;98467.89;;;19.65;78.56
65872;BME280;52653;50.080;21.992;2023-09-19T09:02:27;98465.25;;;19.64;78.98
65872;BME280;52653;50.080;21.992;2023-09-19T09:05:00;98470.42;;;19.61;78.84
65872;BME280;52653;50.080;21.992;2023-09-19T09:07:36;98470.83;;;19.57;78.85
65872;BME280;52653;50.080;21.992;2023-09-19T09:10:13;98472.95;;;19.54;79.04
65872;BME280;52653;50.080;21.992;2023-09-19T09:12:48;98473.69;;;19.53;79.23
65872;BME280;52653;50.080;21.992;2023-09-19T09:15:23;98474.00;;;19.54;79.35
65872;BME280;52653;50.080;21.992;2023-09-19T09:17:56;98473.53;;;19.57;79.52
65872;BME280;52653;50.080;21.992;2023-09-19T09:20:29;98471.61;;;19.59;79.53
65872;BME280;52653;50.080;21.992;2023-09-19T09:23:03;98474.91;;;19.64;79.63
65872;BME280;52653;50.080;21.992;2023-09-19T09:25:51;98478.44;;;19.67;79.57
65872;BME280;52653;50.080;21.992;2023-09-19T09:28:29;98480.52;;;19.78;79.84
65872;BME280;52653;50.080;21.992;2023-09-19T09:31:03;98479.27;;;19.84;79.22
65872;BME280;52653;50.080;21.992;2023-09-19T09:33:41;98475.59;;;19.86;79.22
65872;BME280;52653;50.080;21.992;2023-09-19T09:36:15;98480.45;;;19.85;79.03
65872;BME280;52653;50.080;21.992;2023-09-19T09:38:49;98481.37;;;19.81;79.25
65872;BME280;52653;50.080;21.992;2023-09-19T09:41:38;98485.73;;;19.77;79.18
65872;BME280;52653;50.080;21.992;2023-09-19T09:44:17;98483.44;;;19.70;79.25
65872;BME280;52653;50.080;21.992;2023-09-19T09:46:50;98488.02;;;19.64;79.38
65872;BME280;52653;50.080;21.992;2023-09-19T09:49:49;98491.14;;;19.60;79.45
65872;BME280;52653;50.080;21.992;2023-09-19T09:52:48;98489.16;;;19.57;80.09
65872;BME280;52653;50.080;21.992;2023-09-19T09:55:21;98488.50;;;19.56;80.21
65872;BME280;52653;50.080;21.992;2023-09-19T09:58:17;98488.52;;;19.55;80.35
65872;BME280;52653;50.080;21.992;2023-09-19T10:00:59;98487.25;;;19.49;80.28
65872;BME280;52653;50.080;21.992;2023-09-19T10:03:41;98494.29;;;19.45;80.92
65872;BME280;52653;50.080;21.992;2023-09-19T10:06:20;98494.05;;;19.38;81.40
65872;BME280;52653;50.080;21.992;2023-09-19T10:09:06;98495.06;;;19.30;81.60
65872;BME280;52653;50.080;21.992;2023-09-19T10:11:59;98494.99;;;19.22;82.36
65872;BME280;52653;50.080;21.992;2023-09-19T10:14:36;98495.98;;;19.10;82.88
65872;BME280;52653;50.080;21.992;2023-09-19T10:17:11;98500.54;;;18.98;83.48
65872;BME280;52653;50.080;21.992;2023-09-19T10:19:50;98501.76;;;18.85;84.04
65872;BME280;52653;50.080;21.992;2023-09-19T10:22:30;98500.27;;;18.73;85.23
65872;BME280;52653;50.080;21.992;2023-09-19T10:25:06;98510.77;;;18.58;85.98
65872;BME280;52653;50.080;21.992;2023-09-19T10:27:40;98509.86;;;18.48;86.91
65872;BME280;52653;50.080;21.992;2023-09-19T10:30:14;98513.08;;;18.38;87.82
65872;BME280;52653;50.080;21.992;2023-09-19T10:32:57;98507.68;;;18.28;88.25
65872;BME280;52653;50.080;21.992;2023-09-19T10:35:34;98502.77;;;18.23;88.52
65872;BME280;52653;50.080;21.992;2023-09-19T10:38:13;98498.87;;;18.16;89.25
65872;BME280;52653;50.080;21.992;2023-09-19T10:40:53;98501.49;;;18.10;89.69
65872;BME280;52653;50.080;21.992;2023-09-19T10:43:29;98500.20;;;18.07;90.21
65872;BME280;52653;50.080;21.992;2023-09-19T10:46:08;98501.12;;;18.07;90.66
65872;BME280;52653;50.080;21.992;2023-09-19T10:48:43;98498.77;;;18.08;90.76
65872;BME280;52653;50.080;21.992;2023-09-19T10:51:22;98499.69;;;18.10;90.95
65872;BME280;52653;50.080;21.992;2023-09-19T10:53:59;98500.49;;;18.12;91.21
65872;BME280;52653;50.080;21.992;2023-09-19T10:56:37;98495.21;;;18.14;91.03
65872;BME280;52653;50.080;21.992;2023-09-19T10:59:14;98500.33;;;18.19;91.47
65872;BME280;52653;50.080;21.992;2023-09-19T11:01:53;98493.11;;;18.25;91.49
65872;BME280;52653;50.080;21.992;2023-09-19T11:04:32;98497.06;;;18.31;91.45
65872;BME280;52653;50.080;21.992;2023-09-19T11:07:08;98495.85;;;18.37;91.68
65872;BME280;52653;50.080;21.992;2023-09-19T11:09:48;98493.57;;;18.44;91.38
65872;BME280;52653;50.080;21.992;2023-09-19T11:12:50;98490.86;;;18.51;91.16
65872;BME280;52653;50.080;21.992;2023-09-19T11:18:57;98487.92;;;18.71;90.66
65872;BME280;52653;50.080;21.992;2023-09-19T11:21:53;98484.37;;;18.78;90.33
65872;BME280;52653;50.080;21.992;2023-09-19T11:24:36;98484.92;;;18.84;90.30
65872;BME280;52653;50.080;21.992;2023-09-19T11:27:17;98483.25;;;18.92;90.35
65872;BME280;52653;50.080;21.992;2023-09-19T11:33:21;98484.61;;;18.94;89.70
65872;BME280;52653;50.080;21.992;2023-09-19T11:36:05;98481.67;;;18.86;89.62
65872;BME280;52653;50.080;21.992;2023-09-19T11:39:00;98480.64;;;18.85;89.98
65872;BME280;52653;50.080;21.992;2023-09-19T11:41:40;98479.63;;;18.90;89.95
65872;BME280;52653;50.080;21.992;2023-09-19T11:44:36;98480.51;;;18.97;89.78
65872;BME280;52653;50.080;21.992;2023-09-19T11:47:13;98482.95;;;19.04;89.97
65872;BME280;52653;50.080;21.992;2023-09-19T11:49:46;98483.34;;;19.07;89.88
65872;BME280;52653;50.080;21.992;2023-09-19T11:52:24;98480.31;;;19.07;89.44
65872;BME280;52653;50.080;21.992;2023-09-19T11:54:59;98478.80;;;19.09;89.66
65872;BME280;52653;50.080;21.992;2023-09-19T11:57:35;98478.84;;;19.11;89.52
65872;BME280;52653;50.080;21.992;2023-09-19T12:00:18;98478.09;;;19.12;89.56
65872;BME280;52653;50.080;21.992;2023-09-19T12:02:54;98480.16;;;19.10;89.57
65872;BME280;52653;50.080;21.992;2023-09-19T12:05:32;98481.34;;;19.05;89.28
65872;BME280;52653;50.080;21.992;2023-09-19T12:08:06;98476.98;;;19.00;89.46
65872;BME280;52653;50.080;21.992;2023-09-19T12:10:48;98478.91;;;18.97;89.71
65872;BME280;52653;50.080;21.992;2023-09-19T12:13:21;98477.83;;;18.94;90.19
65872;BME280;52653;50.080;21.992;2023-09-19T12:15:53;98483.45;;;18.95;90.21
65872;BME280;52653;50.080;21.992;2023-09-19T12:18:35;98486.38;;;18.94;90.32
65872;BME280;52653;50.080;21.992;2023-09-19T12:21:22;98491.84;;;18.95;90.74
65872;BME280;52653;50.080;21.992;2023-09-19T12:24:06;98491.06;;;18.96;90.74
65872;BME280;52653;50.080;21.992;2023-09-19T12:26:43;98496.20;;;18.93;90.89
65872;BME280;52653;50.080;21.992;2023-09-19T12:29:18;98493.45;;;18.88;90.98
65872;BME280;52653;50.080;21.992;2023-09-19T12:31:56;98497.78;;;18.83;91.22
65872;BME280;52653;50.080;21.992;2023-09-19T12:34:28;98497.98;;;18.79;91.36
65872;BME280;52653;50.080;21.992;2023-09-19T12:37:07;98499.86;;;18.74;91.47
65872;BME280;52653;50.080;21.992;2023-09-19T12:39:45;98498.52;;;18.69;92.24
65872;BME280;52653;50.080;21.992;2023-09-19T12:42:21;98499.84;;;18.63;92.76
65872;BME280;52653;50.080;21.992;2023-09-19T12:44:54;98500.92;;;18.60;93.56
65872;BME280;52653;50.080;21.992;2023-09-19T12:47:30;98501.79;;;18.60;94.70
65872;BME280;52653;50.080;21.992;2023-09-19T12:50:10;98508.27;;;18.58;95.71
65872;BME280;52653;50.080;21.992;2023-09-19T12:52:47;98504.52;;;18.51;96.33
65872;BME280;52653;50.080;21.992;2023-09-19T12:55:26;98506.23;;;18.43;97.15
65872;BME280;52653;50.080;21.992;2023-09-19T12:58:13;98509.92;;;18.37;97.76
65872;BME280;52653;50.080;21.992;2023-09-19T13:00:53;98509.35;;;18.30;98.33
65872;BME280;52653;50.080;21.992;2023-09-19T13:03:31;98512.77;;;18.25;98.93
65872;BME280;52653;50.080;21.992;2023-09-19T13:06:08;98511.45;;;18.24;99.12
65872;BME280;52653;50.080;21.992;2023-09-19T13:08:44;98512.14;;;18.20;99.82
65872;BME280;52653;50.080;21.992;2023-09-19T13:11:37;98520.54;;;18.12;99.95
65872;BME280;52653;50.080;21.992;2023-09-19T13:14:18;98518.63;;;18.04;100.00
65872;BME280;52653;50.080;21.992;2023-09-19T13:17:03;98531.58;;;17.97;100.00
65872;BME280;52653;50.080;21.992;2023-09-19T13:19:39;98533.94;;;17.93;100.00
65872;BME280;52653;50.080;21.992;2023-09-19T13:22:40;98533.23;;;17.88;100.00
65872;BME280;52653;50.080;21.992;2023-09-19T13:25:16;98539.23;;;17.86;100.00
65872;BME280;52653;50.080;21.992;2023-09-19T13:27:59;98535.89;;;17.85;100.00
65872;BME280;52653;50.080;21.992;2023-09-19T13:30:38;98544.14;;;17.83;100.00
65872;BME280;52653;50.080;21.992;2023-09-19T13:33:13;98551.58;;;17.80;100.00
65872;BME280;52653;50.080;21.992;2023-09-19T13:35:52;98551.58;;;17.80;100.00
65872;BME280;52653;50.080;21.992;2023-09-19T13:38:26;98558.52;;;17.79;100.00
65872;BME280;52653;50.080;21.992;2023-09-19T13:41:00;98557.65;;;17.79;100.00
65872;BME280;52653;50.080;21.992;2023-09-19T13:43:33;98553.13;;;17.81;100.00
65872;BME280;52653;50.080;21.992;2023-09-19T13:46:07;98555.64;;;17.84;100.00